Time;durP1;ratioP1;P1;durP2;ratioP2;P2;SDS_P1;SDS_P2;PMS_P1;PMS_P2;Temp;Humidity;BMP_temperature;BMP_pressure;BME280_temperature;BME280_humidity;BME280_pressure;Samples;Min_cycle;Max_cycle;Signal;HPM_P1;HPM_P2
2023/08/17 00:01:55;;;;;;;11.33;7.20;;;19.90;99.90;;;;;;4967472;28;20529;-83
2023/08/17 00:04:21;;;;;;;9.13;8.03;;;19.90;99.90;;;;;;4966190;28;20175;-84
2023/08/17 00:06:47;;;;;;;9.43;7.60;;;19.90;99.90;;;;;;4996680;28;20242;-83
2023/08/17 00:09:13;;;;;;;9.27;8.23;;;19.80;99.90;;;;;;4986499;28;20462;-85
2023/08/17 00:11:38;;;;;;;10.17;8.17;;;19.80;99.90;;;;;;4972061;28;20306;-85
2023/08/17 00:14:04;;;;;;;10.13;7.97;;;19.70;99.90;;;;;;4974204;28;20494;-86
2023/08/17 00:16:31;;;;;;;10.20;8.30;;;19.70;99.90;;;;;;4969491;28;20210;-83
2023/08/17 00:18:57;;;;;;;11.10;6.50;;;19.70;99.90;;;;;;4972051;28;20433;-84
2023/08/17 00:21:22;;;;;;;10.27;7.70;;;19.60;99.90;;;;;;5015523;28;20473;-85
2023/08/17 00:23:48;;;;;;;9.30;6.77;;;19.60;99.90;;;;;;5013152;28;20441;-81
2023/08/17 00:26:14;;;;;;;14.73;7.90;;;19.60;99.90;;;;;;4975037;28;20206;-86
2023/08/17 00:28:39;;;;;;;10.97;7.93;;;19.50;99.90;;;;;;4972952;28;20222;-85
2023/08/17 00:31:05;;;;;;;14.20;7.90;;;19.50;99.90;;;;;;4963429;28;20537;-83
2023/08/17 00:33:30;;;;;;;9.83;8.37;;;19.50;99.90;;;;;;4982101;28;20203;-83
2023/08/17 00:35:56;;;;;;;11.63;8.03;;;19.50;99.90;;;;;;4994175;28;20203;-83
2023/08/17 00:38:22;;;;;;;9.00;7.80;;;19.50;99.90;;;;;;4972658;28;20183;-84
2023/08/17 00:40:47;;;;;;;10.60;7.60;;;19.40;99.90;;;;;;4990617;28;20273;-85
2023/08/17 00:43:13;;;;;;;10.57;8.00;;;19.50;99.90;;;;;;4986880;28;20194;-85
2023/08/17 00:45:39;;;;;;;8.77;7.87;;;19.70;99.90;;;;;;4970544;28;20187;-85
2023/08/17 00:48:07;;;;;;;13.57;10.10;;;19.80;99.90;;;;;;4970375;28;20181;-82
2023/08/17 00:50:34;;;;;;;13.67;10.67;;;19.70;99.90;;;;;;4969572;28;20465;-86
2023/08/17 00:53:00;;;;;;;19.80;12.60;;;19.60;99.90;;;;;;4984258;28;21400;-82
2023/08/17 00:55:26;;;;;;;16.13;12.97;;;19.50;99.90;;;;;;4970870;28;20528;-83
2023/08/17 00:57:53;;;;;;;21.77;16.20;;;19.40;99.90;;;;;;4971565;28;20466;-84
2023/08/17 01:00:20;;;;;;;21.00;17.23;;;19.40;99.90;;;;;;4976039;28;20442;-83
2023/08/17 01:02:46;;;;;;;16.80;12.57;;;19.30;99.90;;;;;;4973615;28;20865;-83
2023/08/17 01:05:12;;;;;;;19.57;9.90;;;19.40;99.90;;;;;;4974918;28;20434;-85
2023/08/17 01:07:38;;;;;;;15.20;10.93;;;19.40;99.90;;;;;;4990804;28;20468;-83
2023/08/17 01:10:07;;;;;;;15.53;11.90;;;19.40;99.90;;;;;;4969558;28;20469;-83
2023/08/17 01:12:43;;;;;;;16.43;13.30;;;19.50;99.90;;;;;;4970428;28;20191;-84
2023/08/17 01:15:22;;;;;;;15.07;12.00;;;19.40;99.90;;;;;;4985805;28;20558;-83
2023/08/17 01:18:03;;;;;;;15.70;10.67;;;19.40;99.90;;;;;;4984998;28;21110;-82
2023/08/17 01:20:31;;;;;;;12.20;9.20;;;19.40;99.90;;;;;;4987701;28;20437;-83
2023/08/17 01:23:04;;;;;;;13.10;10.10;;;19.40;99.90;;;;;;4988974;28;20456;-86
2023/08/17 01:25:29;;;;;;;11.47;8.80;;;19.40;99.90;;;;;;4985326;28;20440;-84
2023/08/17 01:27:56;;;;;;;12.03;9.70;;;19.40;99.90;;;;;;4970861;28;20479;-84
2023/08/17 01:30:22;;;;;;;11.67;8.70;;;19.40;99.90;;;;;;4977304;28;20187;-81
2023/08/17 01:33:00;;;;;;;11.97;8.93;;;19.50;99.90;;;;;;4983121;28;20433;-84
2023/08/17 01:35:33;;;;;;;10.47;9.30;;;19.50;99.90;;;;;;4956023;28;20441;-82
2023/08/17 01:38:03;;;;;;;11.60;9.07;;;19.50;99.90;;;;;;4967354;28;20528;-84
2023/08/17 01:40:32;;;;;;;11.67;8.00;;;19.50;99.90;;;;;;4985093;28;20430;-83
2023/08/17 01:42:58;;;;;;;12.83;8.60;;;19.50;99.90;;;;;;4970391;28;20445;-82
2023/08/17 01:45:25;;;;;;;10.97;8.70;;;19.50;99.90;;;;;;4987747;28;20450;-84
2023/08/17 01:47:51;;;;;;;12.77;10.03;;;19.50;99.90;;;;;;4986700;28;20461;-83
2023/08/17 01:50:16;;;;;;;15.00;9.63;;;19.50;99.90;;;;;;4989531;28;20453;-85
2023/08/17 01:52:42;;;;;;;11.50;9.00;;;19.50;99.90;;;;;;4976509;28;20203;-83
2023/08/17 01:55:08;;;;;;;15.33;10.03;;;19.60;99.90;;;;;;4971452;28;20190;-85
2023/08/17 01:57:35;;;;;;;12.83;9.50;;;19.60;99.90;;;;;;4983168;28;20284;-84
2023/08/17 02:00:01;;;;;;;10.37;9.27;;;19.80;99.90;;;;;;4982572;28;20457;-85
2023/08/17 02:02:26;;;;;;;11.70;8.50;;;19.90;99.90;;;;;;4989818;28;20460;-84
2023/08/17 02:04:52;;;;;;;10.93;7.97;;;19.90;99.90;;;;;;4985436;28;20269;-85
2023/08/17 02:07:17;;;;;;;13.30;9.57;;;19.90;99.90;;;;;;4976840;28;20575;-84
2023/08/17 02:09:43;;;;;;;11.20;8.33;;;19.90;99.90;;;;;;4970957;28;20207;-83
2023/08/17 02:12:08;;;;;;;13.60;8.30;;;20.00;99.90;;;;;;4973166;28;20232;-84
2023/08/17 02:14:34;;;;;;;13.93;8.50;;;20.10;99.90;;;;;;4968693;28;21930;-86
2023/08/17 02:16:59;;;;;;;10.20;7.80;;;20.00;99.90;;;;;;4971025;28;20301;-84
2023/08/17 02:19:25;;;;;;;12.93;8.27;;;19.90;99.90;;;;;;4987289;28;20667;-84
2023/08/17 02:21:51;;;;;;;10.93;7.77;;;19.90;99.90;;;;;;4968959;28;20217;-84
2023/08/17 02:24:16;;;;;;;12.50;7.17;;;19.90;99.90;;;;;;4988166;28;20198;-84
2023/08/17 02:26:42;;;;;;;10.53;7.57;;;20.00;99.90;;;;;;4988744;28;20462;-82
2023/08/17 02:29:07;;;;;;;9.10;7.20;;;20.10;99.90;;;;;;4987801;28;20194;-83
2023/08/17 02:31:33;;;;;;;10.70;8.40;;;20.00;99.90;;;;;;4982549;28;20193;-82
2023/08/17 02:34:00;;;;;;;8.90;7.90;;;20.00;99.90;;;;;;4988481;28;20273;-82
2023/08/17 02:36:27;;;;;;;10.63;8.13;;;20.30;99.90;;;;;;4982697;28;20798;-84
2023/08/17 02:38:53;;;;;;;9.73;8.80;;;20.20;99.90;;;;;;4976441;28;22346;-83
2023/08/17 02:41:18;;;;;;;9.00;7.00;;;20.20;99.90;;;;;;4971773;28;20560;-86
2023/08/17 02:43:44;;;;;;;10.00;6.80;;;20.30;99.90;;;;;;4985236;28;20438;-84
2023/08/17 02:46:10;;;;;;;10.17;6.97;;;20.30;99.90;;;;;;4983649;28;20203;-84
2023/08/17 02:48:36;;;;;;;11.73;8.53;;;20.20;99.90;;;;;;4969673;28;20179;-84
2023/08/17 02:51:01;;;;;;;13.10;8.17;;;20.20;99.90;;;;;;4967931;28;20449;-83
2023/08/17 02:53:27;;;;;;;11.70;7.67;;;20.20;99.90;;;;;;4972708;28;20181;-83
2023/08/17 02:55:52;;;;;;;11.73;8.93;;;20.30;99.90;;;;;;4985641;28;20282;-84
2023/08/17 02:58:18;;;;;;;11.90;7.73;;;20.30;99.90;;;;;;4978486;28;20195;-84
2023/08/17 03:00:44;;;;;;;11.70;7.73;;;20.40;99.90;;;;;;4980075;28;20219;-82
2023/08/17 03:03:09;;;;;;;8.83;7.80;;;20.30;99.90;;;;;;4975447;28;20436;-83
2023/08/17 03:05:35;;;;;;;10.73;7.60;;;20.50;99.90;;;;;;4985692;28;20187;-84
2023/08/17 03:08:02;;;;;;;12.93;7.20;;;20.50;99.90;;;;;;4975551;28;20190;-85
2023/08/17 03:10:27;;;;;;;10.60;8.30;;;20.40;99.90;;;;;;4980429;28;20666;-85
2023/08/17 03:12:53;;;;;;;10.23;8.40;;;20.40;99.90;;;;;;4987363;28;20437;-83
2023/08/17 03:15:18;;;;;;;7.97;6.77;;;20.30;99.90;;;;;;4976035;28;20182;-84
2023/08/17 03:17:44;;;;;;;11.90;8.17;;;20.30;99.90;;;;;;4986340;28;20229;-82
2023/08/17 03:20:10;;;;;;;8.40;7.10;;;20.40;99.90;;;;;;4973679;28;20607;-83
2023/08/17 03:22:35;;;;;;;8.00;6.33;;;20.40;99.90;;;;;;4989769;28;20222;-84
2023/08/17 03:25:01;;;;;;;9.17;7.53;;;20.30;99.90;;;;;;4989082;28;20532;-83
2023/08/17 03:27:28;;;;;;;11.20;8.27;;;20.30;99.90;;;;;;4986457;28;20290;-86
2023/08/17 03:29:54;;;;;;;12.30;8.97;;;20.30;99.90;;;;;;4979346;28;20262;-85
2023/08/17 03:32:19;;;;;;;12.33;8.30;;;20.40;99.90;;;;;;4980925;28;20536;-84
2023/08/17 03:34:45;;;;;;;10.43;7.90;;;20.40;99.90;;;;;;4977506;28;20197;-82
2023/08/17 03:37:10;;;;;;;12.83;8.30;;;20.40;99.90;;;;;;4966499;28;20203;-83
2023/08/17 03:39:36;;;;;;;11.00;7.90;;;20.40;99.90;;;;;;4986709;28;21552;-84
2023/08/17 03:42:01;;;;;;;17.70;7.93;;;20.40;99.90;;;;;;4973271;28;21394;-83
2023/08/17 03:44:27;;;;;;;14.40;8.10;;;20.40;99.90;;;;;;4989377;28;20620;-86
2023/08/17 03:46:52;;;;;;;10.33;7.30;;;20.40;99.90;;;;;;4985350;28;20724;-87
2023/08/17 03:49:18;;;;;;;10.03;7.77;;;20.50;99.90;;;;;;4976804;28;21370;-85
2023/08/17 03:51:43;;;;;;;15.00;9.07;;;20.40;99.90;;;;;;4987728;28;20186;-85
2023/08/17 03:54:09;;;;;;;10.80;8.33;;;20.40;99.90;;;;;;4988684;28;20190;-85
2023/08/17 03:56:34;;;;;;;13.30;8.90;;;20.30;99.90;;;;;;4981892;28;20436;-84
2023/08/17 03:59:00;;;;;;;12.97;8.40;;;20.30;99.90;;;;;;4990291;28;20188;-83
2023/08/17 04:01:25;;;;;;;11.53;8.07;;;20.20;99.90;;;;;;4989754;28;20241;-83
2023/08/17 04:03:51;;;;;;;11.13;7.90;;;20.20;99.90;;;;;;4985731;28;20692;-84
2023/08/17 04:06:16;;;;;;;12.97;7.17;;;20.20;99.90;;;;;;4985560;28;20281;-85
2023/08/17 04:08:42;;;;;;;10.30;7.87;;;20.30;99.90;;;;;;4966890;28;20583;-85
2023/08/17 04:11:07;;;;;;;9.33;8.00;;;20.40;99.90;;;;;;4966602;28;21070;-82
2023/08/17 04:13:33;;;;;;;8.57;7.70;;;20.30;99.90;;;;;;4968308;28;20186;-85
2023/08/17 04:15:58;;;;;;;11.13;7.93;;;20.30;99.90;;;;;;4975026;28;20203;-84
2023/08/17 04:18:24;;;;;;;7.50;6.77;;;20.30;99.90;;;;;;4976251;28;20185;-85
2023/08/17 04:20:50;;;;;;;18.83;8.03;;;20.30;99.90;;;;;;4988023;28;20794;-84
2023/08/17 04:23:15;;;;;;;10.47;7.60;;;20.30;99.90;;;;;;4969412;28;20190;-82
2023/08/17 04:25:43;;;;;;;15.37;8.03;;;20.40;99.90;;;;;;4980666;28;20946;-84
2023/08/17 04:28:08;;;;;;;10.80;6.90;;;20.40;99.90;;;;;;4977634;28;20179;-85
2023/08/17 04:30:34;;;;;;;7.23;5.80;;;20.30;99.90;;;;;;4975480;28;20445;-83
2023/08/17 04:33:00;;;;;;;8.73;6.40;;;20.30;99.90;;;;;;4970888;28;20207;-85
2023/08/17 04:35:25;;;;;;;7.97;5.20;;;20.30;99.90;;;;;;4968884;28;20183;-85
2023/08/17 04:37:51;;;;;;;10.40;6.40;;;20.30;99.90;;;;;;4987049;28;20206;-83
2023/08/17 04:40:16;;;;;;;8.30;6.27;;;20.40;99.90;;;;;;4980402;28;20812;-85
2023/08/17 04:42:42;;;;;;;9.03;6.53;;;20.40;99.90;;;;;;4973035;28;20259;-86
2023/08/17 04:45:08;;;;;;;11.20;7.23;;;20.30;99.90;;;;;;4975843;28;21131;-85
2023/08/17 04:47:34;;;;;;;12.50;6.60;;;20.40;99.90;;;;;;4964601;28;20230;-84
2023/08/17 04:49:59;;;;;;;11.47;6.70;;;20.40;99.90;;;;;;4980365;28;20533;-82
2023/08/17 04:52:25;;;;;;;10.00;7.60;;;20.50;99.90;;;;;;4966470;28;20194;-83
2023/08/17 04:54:50;;;;;;;10.67;7.20;;;20.40;99.90;;;;;;4982956;28;20607;-84
2023/08/17 04:57:17;;;;;;;8.17;6.47;;;20.50;99.90;;;;;;4987429;28;20206;-84
2023/08/17 04:59:43;;;;;;;9.00;6.47;;;20.60;99.90;;;;;;4993053;28;20189;-84
2023/08/17 05:02:08;;;;;;;7.37;6.13;;;20.60;99.90;;;;;;4986014;28;20474;-84
2023/08/17 05:04:35;;;;;;;9.03;6.40;;;20.50;99.90;;;;;;4978216;28;20524;-85
2023/08/17 05:07:01;;;;;;;10.40;6.27;;;20.60;99.90;;;;;;4973606;28;20748;-83
2023/08/17 05:09:27;;;;;;;6.70;6.00;;;20.60;99.90;;;;;;4991617;28;20450;-84
2023/08/17 05:11:52;;;;;;;7.67;6.80;;;20.80;99.90;;;;;;4990838;28;20190;-86
2023/08/17 05:14:18;;;;;;;8.13;5.70;;;20.70;99.90;;;;;;4991307;28;20456;-86
2023/08/17 05:16:43;;;;;;;6.50;5.80;;;20.70;99.90;;;;;;4972960;28;20261;-85
2023/08/17 05:19:09;;;;;;;7.73;6.67;;;20.70;99.90;;;;;;4970325;28;20189;-84
2023/08/17 05:21:35;;;;;;;6.87;6.03;;;20.80;99.90;;;;;;4972513;28;20207;-83
2023/08/17 05:24:00;;;;;;;7.20;5.83;;;20.80;99.90;;;;;;4972994;28;20737;-84
2023/08/17 05:26:26;;;;;;;10.50;6.10;;;20.80;99.90;;;;;;4972558;28;20485;-86
2023/08/17 05:28:51;;;;;;;7.13;5.43;;;20.80;99.90;;;;;;4980927;28;20270;-84
2023/08/17 05:31:17;;;;;;;10.33;5.90;;;20.90;99.90;;;;;;4974142;28;20932;-88
2023/08/17 05:33:42;;;;;;;12.30;6.50;;;21.00;99.90;;;;;;4975255;28;20183;-84
2023/08/17 05:36:08;;;;;;;11.00;6.77;;;21.10;99.90;;;;;;4970218;28;20695;-83
2023/08/17 05:38:33;;;;;;;6.10;5.50;;;21.20;99.90;;;;;;4965488;28;20197;-83
2023/08/17 05:40:59;;;;;;;7.77;5.70;;;21.20;99.90;;;;;;4957921;28;20239;-83
2023/08/17 05:43:25;;;;;;;7.93;4.07;;;21.20;99.90;;;;;;4983578;28;20213;-85
2023/08/17 05:45:51;;;;;;;4.80;4.20;;;21.10;99.90;;;;;;4969935;28;20225;-84
2023/08/17 05:48:21;;;;;;;6.63;4.47;;;21.10;99.90;;;;;;4984677;28;20811;-84
2023/08/17 05:50:47;;;;;;;5.30;3.83;;;21.30;99.90;;;;;;4983974;28;20451;-84
2023/08/17 05:53:13;;;;;;;5.70;4.67;;;21.20;99.90;;;;;;4985086;28;20442;-82
2023/08/17 05:55:38;;;;;;;6.10;4.50;;;21.10;99.90;;;;;;4968998;28;21569;-85
2023/08/17 05:58:04;;;;;;;7.73;4.60;;;21.00;99.90;;;;;;4965427;28;20198;-84
2023/08/17 06:00:30;;;;;;;7.83;4.90;;;21.00;99.90;;;;;;4975292;28;20752;-84
2023/08/17 06:03:00;;;;;;;8.10;4.30;;;21.70;99.90;;;;;;4954990;28;20277;-84
2023/08/17 06:05:28;;;;;;;15.93;5.37;;;21.40;99.90;;;;;;4977960;28;20425;-85
2023/08/17 06:07:57;;;;;;;9.50;5.17;;;21.50;99.90;;;;;;4964061;28;20455;-84
2023/08/17 06:10:25;;;;;;;6.73;4.83;;;21.60;99.90;;;;;;4963509;28;20433;-85
2023/08/17 06:12:55;;;;;;;8.07;4.77;;;21.60;99.90;;;;;;4963659;28;20438;-85
2023/08/17 06:15:22;;;;;;;7.30;5.00;;;21.40;99.90;;;;;;4971734;28;20437;-85
2023/08/17 06:17:49;;;;;;;7.83;5.07;;;21.30;99.90;;;;;;4977742;28;21069;-83
2023/08/17 06:20:16;;;;;;;8.83;5.73;;;21.30;99.90;;;;;;4977526;28;21622;-85
2023/08/17 06:22:41;;;;;;;9.07;5.63;;;21.50;99.90;;;;;;4981079;28;20454;-84
2023/08/17 06:25:08;;;;;;;6.80;4.60;;;21.60;99.90;;;;;;4986307;28;20455;-85
2023/08/17 06:27:34;;;;;;;10.60;5.23;;;21.70;99.90;;;;;;4964712;28;20484;-86
2023/08/17 06:30:00;;;;;;;6.50;5.37;;;21.80;99.90;;;;;;4972842;28;20437;-86
2023/08/17 06:32:26;;;;;;;7.50;5.33;;;21.80;99.90;;;;;;4982108;28;20448;-83
2023/08/17 06:34:54;;;;;;;5.80;5.10;;;21.80;99.90;;;;;;4960918;28;20460;-84
2023/08/17 06:37:19;;;;;;;8.10;6.00;;;21.80;99.90;;;;;;4964789;28;20211;-85
2023/08/17 06:39:45;;;;;;;7.90;5.80;;;21.80;99.90;;;;;;4975190;28;20445;-83
2023/08/17 06:42:10;;;;;;;9.40;6.40;;;21.80;99.90;;;;;;4980760;28;20711;-85
2023/08/17 06:44:36;;;;;;;9.10;6.50;;;21.80;99.90;;;;;;4982075;28;20777;-85
2023/08/17 06:47:02;;;;;;;11.03;6.60;;;22.00;99.90;;;;;;4968715;28;20760;-84
2023/08/17 06:49:28;;;;;;;12.80;7.63;;;22.00;99.90;;;;;;4976358;28;22536;-86
2023/08/17 06:51:53;;;;;;;16.70;7.60;;;22.10;99.90;;;;;;4981427;28;20804;-83
2023/08/17 06:54:19;;;;;;;17.20;9.57;;;22.30;99.90;;;;;;4968840;28;20456;-84
2023/08/17 06:56:44;;;;;;;17.03;8.60;;;22.20;99.90;;;;;;4969715;28;20387;-85
2023/08/17 06:59:10;;;;;;;16.17;8.27;;;22.50;99.90;;;;;;4972485;28;20190;-82
2023/08/17 07:01:36;;;;;;;13.60;8.80;;;22.80;99.90;;;;;;4986722;28;20229;-85
2023/08/17 07:04:01;;;;;;;13.87;8.53;;;22.90;99.90;;;;;;4968569;28;20185;-86
2023/08/17 07:06:28;;;;;;;15.10;8.73;;;23.20;99.90;;;;;;4982939;28;20450;-85
2023/08/17 07:08:54;;;;;;;18.33;9.00;;;23.30;99.90;;;;;;4969184;28;20182;-84
2023/08/17 07:11:19;;;;;;;17.60;9.87;;;23.40;99.90;;;;;;4972530;28;20504;-87
2023/08/17 07:13:45;;;;;;;14.53;8.70;;;23.60;99.90;;;;;;4984172;28;20189;-81
2023/08/17 07:16:11;;;;;;;17.57;9.07;;;23.90;99.90;;;;;;4978333;28;20687;-85
2023/08/17 07:18:36;;;;;;;14.30;9.63;;;24.00;99.90;;;;;;4964998;28;20190;-83
2023/08/17 07:21:02;;;;;;;15.77;9.50;;;24.20;99.90;;;;;;4966421;28;20195;-86
2023/08/17 07:23:27;;;;;;;14.30;8.63;;;24.20;99.90;;;;;;4972413;28;20252;-84
2023/08/17 07:25:53;;;;;;;20.40;8.80;;;23.90;99.90;;;;;;4983770;28;20200;-84
2023/08/17 07:28:18;;;;;;;11.03;8.50;;;23.60;99.90;;;;;;4969764;28;20194;-86
2023/08/17 07:30:44;;;;;;;14.80;9.13;;;23.60;99.90;;;;;;4971137;28;20214;-84
2023/08/17 07:33:09;;;;;;;23.57;9.37;;;23.60;99.90;;;;;;4966107;28;20603;-82
2023/08/17 07:35:35;;;;;;;13.80;9.57;;;23.60;99.90;;;;;;5000256;28;20223;-85
2023/08/17 07:38:00;;;;;;;20.33;10.07;;;23.50;99.90;;;;;;4983869;28;20194;-84
2023/08/17 07:40:26;;;;;;;14.10;8.97;;;23.60;99.90;;;;;;4979101;28;20646;-84
2023/08/17 07:42:52;;;;;;;16.80;9.50;;;23.40;99.90;;;;;;4978620;28;20288;-84
2023/08/17 07:45:18;;;;;;;17.63;10.47;;;23.60;99.90;;;;;;4973104;28;20229;-86
2023/08/17 07:47:44;;;;;;;12.60;10.60;;;23.80;99.90;;;;;;4969864;28;20455;-84
2023/08/17 07:50:09;;;;;;;13.63;11.00;;;24.30;99.90;;;;;;4985306;28;20438;-84
2023/08/17 07:52:35;;;;;;;12.80;11.20;;;24.90;99.90;;;;;;4983271;28;20660;-84
2023/08/17 07:55:00;;;;;;;20.53;13.27;;;25.50;99.90;;;;;;4991812;28;20184;-83
2023/08/17 07:57:26;;;;;;;14.27;11.47;;;26.10;99.90;;;;;;4997994;28;20229;-86
2023/08/17 07:59:53;;;;;;;14.13;11.63;;;26.80;99.90;;;;;;4975824;28;20185;-87
2023/08/17 08:02:19;;;;;;;16.30;12.00;;;27.60;99.90;;;;;;4979580;28;20325;-84
2023/08/17 08:04:44;;;;;;;14.70;11.50;;;27.90;99.90;;;;;;4966352;28;22027;-83
2023/08/17 08:07:10;;;;;;;12.60;10.30;;;28.00;99.90;;;;;;4966728;28;20216;-84
2023/08/17 08:09:36;;;;;;;13.80;10.30;;;28.00;99.90;;;;;;4965338;28;20183;-84
2023/08/17 08:12:02;;;;;;;19.23;13.30;;;28.30;99.90;;;;;;4976607;28;20192;-85
2023/08/17 08:14:28;;;;;;;16.37;13.03;;;28.40;99.90;;;;;;4991045;28;20368;-83
2023/08/17 08:16:53;;;;;;;13.60;11.53;;;27.90;99.90;;;;;;4977022;28;21587;-86
2023/08/17 08:19:19;;;;;;;16.90;11.93;;;28.20;99.90;;;;;;4973792;28;20209;-83
2023/08/17 08:21:44;;;;;;;15.00;11.33;;;28.60;99.90;;;;;;4983392;28;20525;-84
2023/08/17 08:24:10;;;;;;;16.33;11.50;;;29.00;99.90;;;;;;4988268;28;20190;-84
2023/08/17 08:26:35;;;;;;;18.73;12.90;;;28.10;99.90;;;;;;4974634;28;20207;-84
2023/08/17 08:29:01;;;;;;;16.90;12.57;;;27.70;99.90;;;;;;4983630;28;20685;-85
2023/08/17 08:31:26;;;;;;;19.20;12.83;;;27.70;99.90;;;;;;4970288;28;20184;-83
2023/08/17 08:33:52;;;;;;;15.23;12.90;;;28.50;99.90;;;;;;4976272;28;20192;-84
2023/08/17 08:36:18;;;;;;;15.83;11.67;;;29.50;99.90;;;;;;4969513;28;20296;-84
2023/08/17 08:38:44;;;;;;;14.63;11.23;;;30.90;99.90;;;;;;4969416;28;20442;-83
2023/08/17 08:41:11;;;;;;;13.17;11.43;;;32.90;99.90;;;;;;4969739;28;20292;-85
2023/08/17 08:43:36;;;;;;;11.83;10.13;;;34.60;99.90;;;;;;4987817;28;20180;-85
2023/08/17 08:46:02;;;;;;;10.77;9.30;;;36.20;99.90;;;;;;4982645;28;20464;-84
2023/08/17 08:48:29;;;;;;;11.30;10.00;;;37.00;99.90;;;;;;4967763;28;20192;-84
2023/08/17 08:50:56;;;;;;;11.23;9.97;;;36.80;99.90;;;;;;4968304;28;20360;-84
2023/08/17 08:53:31;;;;;;;11.57;10.47;;;35.80;99.90;;;;;;4970413;28;20941;-85
2023/08/17 08:55:59;;;;;;;12.70;11.50;;;35.60;99.90;;;;;;4965175;28;20461;-85
2023/08/17 08:58:26;;;;;;;13.10;10.27;;;35.40;99.90;;;;;;4977052;28;20467;-84
2023/08/17 09:00:52;;;;;;;14.80;11.40;;;35.60;99.90;;;;;;4969702;28;20439;-85
2023/08/17 09:03:20;;;;;;;11.37;9.30;;;35.50;99.90;;;;;;4982683;28;20501;-83
2023/08/17 09:05:49;;;;;;;12.37;9.43;;;35.80;99.90;;;;;;4986432;28;20457;-81
2023/08/17 09:08:21;;;;;;;14.70;10.73;;;36.70;99.00;;;;;;4974662;28;20530;-81
2023/08/17 09:10:47;;;;;;;13.20;8.93;;;36.40;98.00;;;;;;4989909;28;20466;-85
2023/08/17 09:13:12;;;;;;;11.07;9.90;;;37.60;97.50;;;;;;4969604;28;20544;-85
2023/08/17 09:15:38;;;;;;;12.10;10.37;;;38.80;95.50;;;;;;4987904;28;20186;-86
2023/08/17 09:18:07;;;;;;;11.67;9.20;;;39.00;92.60;;;;;;4979893;28;20253;-85
2023/08/17 09:20:41;;;;;;;12.70;9.90;;;37.80;93.90;;;;;;4993194;28;20190;-86
2023/08/17 09:23:21;;;;;;;14.03;10.73;;;38.10;94.10;;;;;;4985783;28;20441;-84
2023/08/17 09:25:48;;;;;;;12.43;11.20;;;37.60;93.00;;;;;;4974709;28;20521;-85
2023/08/17 09:28:16;;;;;;;14.00;10.30;;;35.40;94.70;;;;;;4971888;28;20477;-85
2023/08/17 09:30:59;;;;;;;12.33;10.20;;;36.60;95.70;;;;;;4968270;28;20890;-84
2023/08/17 09:33:27;;;;;;;13.40;10.80;;;37.10;93.90;;;;;;4961769;28;20440;-86
2023/08/17 09:35:57;;;;;;;11.90;10.57;;;36.60;94.60;;;;;;4964302;28;21089;-85
2023/08/17 09:38:24;;;;;;;16.50;11.60;;;36.60;95.30;;;;;;4967512;28;20480;-86
2023/08/17 09:40:50;;;;;;;12.17;9.87;;;37.60;93.10;;;;;;4981202;28;20437;-86
2023/08/17 09:43:18;;;;;;;13.70;12.00;;;37.30;93.30;;;;;;4982704;28;20433;-86
2023/08/17 09:45:49;;;;;;;16.60;14.10;;;35.60;95.40;;;;;;4966594;28;20193;-84
2023/08/17 09:48:17;;;;;;;16.43;13.50;;;34.10;96.10;;;;;;4979986;28;21795;-86
2023/08/17 09:50:44;;;;;;;15.03;13.37;;;32.70;99.90;;;;;;4961932;28;20436;-85
2023/08/17 09:53:14;;;;;;;14.60;13.13;;;30.90;99.90;;;;;;4971860;28;20451;-86
2023/08/17 09:55:42;;;;;;;17.50;14.20;;;31.30;99.90;;;;;;4987238;28;20447;-87
2023/08/17 09:58:08;;;;;;;19.23;12.10;;;32.30;99.90;;;;;;4984433;28;21027;-85
2023/08/17 10:00:35;;;;;;;14.63;11.03;;;33.70;99.90;;;;;;4965716;28;20445;-88
2023/08/17 10:03:04;;;;;;;13.43;11.87;;;35.20;99.90;;;;;;4969864;28;22552;-85
2023/08/17 10:05:35;;;;;;;17.67;12.07;;;33.80;99.90;;;;;;4985441;28;20437;-86
2023/08/17 10:08:03;;;;;;;14.80;11.33;;;32.40;99.90;;;;;;4983223;28;20432;-86
2023/08/17 10:10:31;;;;;;;14.80;11.53;;;32.90;99.90;;;;;;4964267;28;20445;-85
2023/08/17 10:13:11;;;;;;;13.23;11.10;;;32.70;99.90;;;;;;4983052;28;20472;-85
2023/08/17 10:16:00;;;;;;;12.47;11.23;;;34.10;99.90;;;;;;4975021;28;20442;-85
2023/08/17 10:18:36;;;;;;;14.90;11.47;;;34.30;99.90;;;;;;4960566;28;20453;-84
2023/08/17 10:21:05;;;;;;;12.70;10.50;;;34.50;99.90;;;;;;4973591;28;20436;-85
2023/08/17 10:23:31;;;;;;;13.33;9.83;;;34.50;99.90;;;;;;4968283;28;20520;-83
2023/08/17 10:25:57;;;;;;;12.30;11.00;;;34.00;99.90;;;;;;4983041;28;20847;-81
2023/08/17 10:28:24;;;;;;;13.83;12.27;;;31.70;99.90;;;;;;4989497;28;20427;-82
2023/08/17 10:30:51;;;;;;;15.33;12.87;;;30.50;99.90;;;;;;4968734;28;20778;-84
2023/08/17 10:33:17;;;;;;;12.63;10.93;;;29.50;99.90;;;;;;4986013;28;20438;-87
2023/08/17 10:35:44;;;;;;;12.00;10.53;;;29.20;99.90;;;;;;4985981;28;20433;-84
2023/08/17 10:38:10;;;;;;;13.13;11.40;;;29.30;99.90;;;;;;4984405;28;20444;-86
2023/08/17 10:40:37;;;;;;;13.87;12.37;;;28.90;99.90;;;;;;4971764;28;20437;-86
2023/08/17 10:43:03;;;;;;;13.40;11.60;;;28.50;99.90;;;;;;4987512;28;21343;-83
2023/08/17 10:45:31;;;;;;;18.10;12.57;;;28.50;99.90;;;;;;4978054;28;20506;-82
2023/08/17 10:48:27;;;;;;;11.80;10.60;;;28.30;99.90;;;;;;4965870;28;20206;-82
2023/08/17 10:51:02;;;;;;;14.33;12.60;;;28.90;99.90;;;;;;4982388;28;20446;-84
2023/08/17 10:53:34;;;;;;;14.23;9.47;;;29.50;99.90;;;;;;4973441;28;20810;-86
2023/08/17 10:56:00;;;;;;;11.47;10.20;;;29.80;99.90;;;;;;4972152;28;20472;-84
2023/08/17 10:58:25;;;;;;;14.00;10.77;;;29.30;99.90;;;;;;4972314;28;21156;-84
2023/08/17 11:00:56;;;;;;;11.10;9.90;;;28.90;99.90;;;;;;4967785;28;20546;-84
2023/08/17 11:03:23;;;;;;;13.43;10.90;;;29.00;99.90;;;;;;4987505;28;20432;-84
2023/08/17 11:05:53;;;;;;;19.47;13.00;;;28.90;99.90;;;;;;4970870;28;21024;-84
2023/08/17 11:08:23;;;;;;;21.90;12.40;;;28.50;99.90;;;;;;4971148;28;20476;-84
2023/08/17 11:10:59;;;;;;;13.83;11.03;;;28.70;99.90;;;;;;4977402;28;20870;-83
2023/08/17 11:13:28;;;;;;;13.93;11.47;;;29.20;99.90;;;;;;4964313;28;20441;-84
2023/08/17 11:15:53;;;;;;;12.80;11.10;;;29.50;99.90;;;;;;4968164;28;20997;-83
2023/08/17 11:18:19;;;;;;;12.60;10.53;;;29.30;99.90;;;;;;4982011;28;20454;-85
2023/08/17 11:20:44;;;;;;;13.07;11.27;;;29.00;99.90;;;;;;4970580;28;20290;-83
2023/08/17 11:23:11;;;;;;;14.83;10.70;;;29.00;99.90;;;;;;4971325;28;20607;-85
2023/08/17 11:25:37;;;;;;;12.87;10.20;;;29.10;99.90;;;;;;4969869;28;20271;-83
2023/08/17 11:28:05;;;;;;;12.73;9.20;;;29.10;99.90;;;;;;4980369;28;20427;-81
2023/08/17 11:30:33;;;;;;;10.57;9.40;;;28.90;99.90;;;;;;4973179;28;20971;-86
2023/08/17 11:32:59;;;;;;;10.43;9.30;;;29.00;99.90;;;;;;4984244;28;20455;-84
2023/08/17 11:35:25;;;;;;;9.57;8.67;;;29.10;99.90;;;;;;4975403;28;21011;-85
2023/08/17 11:37:50;;;;;;;8.83;8.03;;;29.30;99.90;;;;;;4970454;28;20330;-84
2023/08/17 11:40:16;;;;;;;12.87;9.57;;;29.50;99.90;;;;;;4986166;28;20241;-83
2023/08/17 11:42:42;;;;;;;9.13;8.17;;;29.60;99.90;;;;;;4989396;28;20237;-84
2023/08/17 11:45:11;;;;;;;14.37;8.93;;;29.70;99.90;;;;;;4977921;28;20184;-85
2023/08/17 11:47:41;;;;;;;10.40;7.60;;;29.40;99.90;;;;;;4976165;28;20556;-84
2023/08/17 11:50:09;;;;;;;10.90;8.17;;;29.60;99.90;;;;;;4975716;28;20441;-83
2023/08/17 11:52:38;;;;;;;10.03;8.30;;;29.70;99.90;;;;;;4991278;28;20450;-84
2023/08/17 11:55:05;;;;;;;7.80;7.00;;;30.20;99.90;;;;;;4975258;28;22780;-83
2023/08/17 11:57:31;;;;;;;10.73;6.30;;;30.50;99.90;;;;;;4982106;28;20480;-84
2023/08/17 11:59:59;;;;;;;9.53;6.83;;;30.30;99.90;;;;;;4990198;28;20486;-84
2023/08/17 12:02:26;;;;;;;8.50;7.23;;;29.70;99.90;;;;;;4989794;28;20470;-84
2023/08/17 12:04:52;;;;;;;8.03;7.23;;;29.30;99.90;;;;;;4971466;28;20479;-84
2023/08/17 12:07:18;;;;;;;8.17;7.40;;;29.60;99.90;;;;;;5007188;28;20469;-84
2023/08/17 12:09:45;;;;;;;9.00;7.20;;;29.40;99.90;;;;;;4988476;28;21029;-82
2023/08/17 12:12:11;;;;;;;7.70;7.07;;;29.20;99.90;;;;;;4986672;28;20434;-84
2023/08/17 12:14:41;;;;;;;8.33;7.53;;;28.70;99.90;;;;;;4974061;28;20526;-83
2023/08/17 12:17:07;;;;;;;8.03;7.27;;;28.00;99.90;;;;;;4970056;28;20466;-84
2023/08/17 12:19:32;;;;;;;11.03;8.63;;;27.90;99.90;;;;;;4975323;28;20454;-83
2023/08/17 12:21:58;;;;;;;9.10;8.23;;;27.80;99.90;;;;;;4988858;28;20853;-82
2023/08/17 12:24:24;;;;;;;10.10;9.27;;;27.40;99.90;;;;;;4992074;28;20675;-85
2023/08/17 12:26:50;;;;;;;9.07;8.17;;;27.10;99.90;;;;;;5000150;28;20205;-83
2023/08/17 12:29:15;;;;;;;9.13;8.23;;;26.90;99.90;;;;;;4993298;28;20437;-84
2023/08/17 12:31:41;;;;;;;9.90;8.90;;;26.60;99.90;;;;;;4977128;28;20325;-85
2023/08/17 12:34:07;;;;;;;10.10;9.10;;;26.60;99.90;;;;;;4976920;28;20193;-84